createdAt,value
2023-05-23T00:00:38.254Z,21.83
2023-05-23T00:03:08.980Z,22.00
2023-05-23T00:05:39.859Z,21.63
2023-05-23T00:08:10.810Z,24.00
2023-05-23T00:10:43.997Z,24.27
2023-05-23T00:13:15.344Z,29.23
2023-05-23T00:15:46.887Z,30.23
2023-05-23T00:18:17.866Z,29.50
2023-05-23T00:20:48.936Z,29.70
2023-05-23T00:23:22.739Z,33.23
2023-05-23T00:25:56.180Z,32.20
2023-05-23T00:28:26.838Z,34.60
2023-05-23T00:30:57.451Z,32.90
2023-05-23T00:33:29.977Z,34.57
2023-05-23T00:36:00.847Z,30.53
2023-05-23T00:38:31.590Z,30.97
2023-05-23T00:41:05.867Z,33.60
2023-05-23T00:43:37.031Z,33.60
2023-05-23T00:46:08.763Z,37.40
2023-05-23T00:48:40.001Z,32.10
2023-05-23T00:51:10.990Z,35.73
2023-05-23T00:53:41.871Z,39.70
2023-05-23T00:56:15.471Z,30.70
2023-05-23T00:58:46.107Z,42.17
2023-05-23T01:01:18.052Z,38.37
2023-05-23T01:03:48.904Z,38.03
2023-05-23T01:06:20.482Z,42.70
2023-05-23T01:08:51.117Z,43.00
2023-05-23T01:11:30.872Z,44.40
2023-05-23T01:14:06.305Z,48.47
2023-05-23T01:16:48.908Z,43.47
2023-05-23T01:19:52.112Z,47.33
2023-05-23T01:22:36.200Z,49.37
2023-05-23T01:25:14.842Z,45.83
2023-05-23T01:27:54.255Z,46.33
2023-05-23T01:30:26.356Z,44.20
2023-05-23T01:32:59.561Z,47.80
2023-05-23T01:35:31.256Z,45.93
2023-05-23T01:38:01.976Z,45.63
2023-05-23T01:40:32.943Z,44.87
2023-05-23T01:43:06.475Z,47.97
2023-05-23T01:45:38.114Z,47.70
2023-05-23T01:48:10.108Z,44.27
2023-05-23T01:50:42.147Z,48.17
2023-05-23T01:53:14.987Z,48.30
2023-05-23T01:55:46.598Z,51.07
2023-05-23T01:58:20.614Z,51.77
2023-05-23T02:00:51.330Z,50.07
2023-05-23T02:03:22.308Z,53.53
2023-05-23T02:05:53.674Z,46.80
2023-05-23T02:08:24.287Z,47.47
2023-05-23T02:10:54.947Z,51.47
2023-05-23T02:13:28.316Z,52.20
2023-05-23T02:15:58.911Z,48.73
2023-05-23T02:18:30.074Z,44.60
2023-05-23T02:21:00.680Z,50.70
2023-05-23T02:23:31.414Z,45.77
2023-05-23T02:26:02.122Z,49.50
2023-05-23T02:28:35.279Z,47.70
2023-05-23T02:31:06.306Z,47.03
2023-05-23T02:33:37.006Z,50.97
2023-05-23T02:36:08.319Z,54.20
2023-05-23T02:38:39.013Z,52.87
2023-05-23T02:41:09.637Z,53.63
2023-05-23T02:43:44.248Z,51.60
2023-05-23T02:46:16.461Z,50.43
2023-05-23T02:48:47.457Z,44.40
2023-05-23T02:51:18.021Z,48.37
2023-05-23T02:53:48.605Z,52.70
2023-05-23T02:56:20.430Z,51.00
2023-05-23T02:58:53.608Z,51.10
2023-05-23T03:01:24.454Z,51.00
2023-05-23T03:03:55.096Z,50.27
2023-05-23T03:06:27.741Z,53.13
2023-05-23T03:08:58.348Z,54.03
2023-05-23T03:11:30.003Z,51.03
2023-05-23T03:14:03.173Z,52.00
2023-05-23T03:16:33.796Z,59.60
2023-05-23T03:19:04.882Z,64.10
2023-05-23T03:21:36.373Z,64.33
2023-05-23T03:24:07.827Z,58.60
2023-05-23T03:26:38.351Z,56.70
2023-05-23T03:29:11.522Z,49.53
2023-05-23T03:31:42.135Z,50.83
2023-05-23T03:34:13.189Z,48.60
2023-05-23T03:36:43.874Z,46.33
2023-05-23T03:39:14.523Z,44.50
2023-05-23T03:41:45.088Z,49.53
2023-05-23T03:44:18.400Z,53.50
2023-05-23T03:46:49.093Z,53.40
2023-05-23T03:49:21.159Z,63.80
2023-05-23T03:51:51.758Z,59.53
2023-05-23T03:54:22.368Z,58.23
2023-05-23T03:56:53.022Z,61.67
2023-05-23T03:59:26.236Z,58.80
2023-05-23T04:01:58.992Z,62.77
2023-05-23T04:04:29.724Z,64.60
2023-05-23T04:07:01.801Z,60.93
2023-05-23T04:09:32.818Z,59.90
2023-05-23T04:12:03.978Z,56.43
2023-05-23T04:14:37.867Z,62.03
2023-05-23T04:17:09.314Z,61.93
2023-05-23T04:19:40.650Z,57.63
2023-05-23T04:22:11.301Z,56.63
2023-05-23T04:24:41.911Z,55.10
2023-05-23T04:27:13.891Z,55.70
2023-05-23T04:29:48.369Z,57.03
2023-05-23T04:32:23.243Z,55.90
2023-05-23T04:34:54.113Z,59.90
2023-05-23T04:37:26.529Z,55.53
2023-05-23T04:39:59.470Z,53.73
2023-05-23T04:42:46.391Z,54.87
2023-05-23T04:45:41.835Z,53.70
2023-05-23T04:48:30.167Z,51.70
2023-05-23T04:51:02.418Z,51.93
2023-05-23T04:53:33.879Z,54.50
2023-05-23T04:56:04.812Z,51.03
2023-05-23T04:58:35.811Z,51.30
2023-05-23T05:01:11.958Z,52.53
2023-05-23T05:03:42.712Z,50.27
2023-05-23T05:06:13.360Z,51.63
2023-05-23T05:08:43.983Z,50.50
2023-05-23T05:11:15.323Z,49.43
2023-05-23T05:13:45.985Z,53.97
2023-05-23T05:16:20.130Z,50.53
2023-05-23T05:18:51.685Z,52.33
2023-05-23T05:21:23.577Z,52.73
2023-05-23T05:23:54.655Z,51.23
2023-05-23T05:26:25.572Z,46.70
2023-05-23T05:28:57.122Z,46.10
2023-05-23T05:31:30.524Z,49.00
2023-05-23T05:34:01.292Z,47.20
2023-05-23T05:36:32.626Z,46.20
2023-05-23T05:39:03.436Z,45.40
2023-05-23T05:41:33.988Z,47.17
2023-05-23T05:44:04.525Z,46.60
2023-05-23T05:46:37.905Z,47.63
2023-05-23T05:49:10.196Z,46.60
2023-05-23T05:51:41.102Z,46.20
2023-05-23T05:54:11.975Z,44.57
2023-05-23T05:56:42.640Z,44.87
2023-05-23T05:59:14.370Z,45.77
2023-05-23T06:01:47.914Z,43.00
2023-05-23T06:04:18.793Z,46.50
2023-05-23T06:06:49.719Z,41.67
2023-05-23T06:09:20.258Z,46.83
2023-05-23T06:11:51.157Z,45.30
2023-05-23T06:14:22.458Z,41.67
2023-05-23T06:16:56.906Z,43.17
2023-05-23T06:19:27.598Z,42.27
2023-05-23T06:21:58.889Z,43.40
2023-05-23T06:24:29.575Z,42.80
2023-05-23T06:27:00.123Z,42.87
2023-05-23T06:29:31.416Z,42.37
2023-05-23T06:32:04.691Z,41.50
2023-05-23T06:34:35.554Z,44.60
2023-05-23T06:37:06.112Z,42.97
2023-05-23T06:39:36.659Z,43.20
2023-05-23T06:42:07.618Z,44.10
2023-05-23T06:44:53.560Z,47.43
2023-05-23T06:47:26.940Z,44.33
2023-05-23T06:49:57.546Z,43.90
2023-05-23T06:52:28.856Z,43.13
2023-05-23T06:55:00.449Z,42.80
2023-05-23T06:57:31.192Z,41.50
2023-05-23T07:00:01.809Z,42.90
2023-05-23T07:02:35.135Z,42.37
2023-05-23T07:05:09.609Z,41.93
2023-05-23T07:07:51.013Z,46.03
2023-05-23T07:10:21.923Z,44.03
2023-05-23T07:12:54.160Z,43.10
2023-05-23T07:15:26.180Z,45.80
2023-05-23T07:18:11.918Z,42.07
2023-05-23T07:20:42.690Z,43.00
2023-05-23T07:23:20.164Z,46.43
2023-05-23T07:26:01.785Z,46.93
2023-05-23T07:28:40.609Z,42.70
2023-05-23T07:31:12.228Z,45.83
2023-05-23T07:33:45.493Z,47.87
2023-05-23T07:36:22.575Z,45.50
2023-05-23T07:38:54.436Z,46.83
2023-05-23T07:41:25.226Z,45.80
2023-05-23T07:43:56.098Z,43.70
2023-05-23T07:46:26.763Z,40.80
2023-05-23T07:48:59.911Z,45.93
2023-05-23T07:51:31.067Z,43.43
2023-05-23T07:54:01.651Z,41.83
2023-05-23T07:56:32.601Z,36.77
2023-05-23T07:59:03.129Z,36.30
2023-05-23T08:01:33.980Z,36.53
2023-05-23T08:04:12.703Z,35.40
2023-05-23T08:07:04.190Z,29.70
2023-05-23T08:09:49.807Z,34.23
2023-05-23T08:12:23.098Z,34.30
2023-05-23T08:15:02.251Z,35.00
2023-05-23T08:17:36.893Z,36.07
2023-05-23T08:20:12.372Z,38.27
2023-05-23T08:22:43.190Z,38.03
2023-05-23T08:25:14.285Z,35.20
2023-05-23T08:27:44.840Z,36.80
2023-05-23T08:30:33.905Z,34.87
2023-05-23T08:33:05.082Z,32.77
2023-05-23T08:35:39.197Z,30.20
2023-05-23T08:38:13.828Z,30.53
2023-05-23T08:40:55.477Z,30.60
2023-05-23T08:43:27.669Z,28.00
2023-05-23T08:45:58.741Z,27.57
2023-05-23T08:48:32.573Z,27.80
2023-05-23T08:51:07.088Z,25.20
2023-05-23T08:53:41.352Z,27.77
2023-05-23T08:56:12.717Z,25.97
2023-05-23T08:58:48.753Z,25.03
2023-05-23T09:01:23.254Z,27.73
2023-05-23T09:04:00.494Z,24.10
2023-05-23T09:07:10.778Z,25.47
2023-05-23T09:09:41.893Z,24.57
2023-05-23T09:12:15.556Z,24.40
2023-05-23T09:14:49.339Z,22.97
2023-05-23T09:17:22.700Z,22.77
2023-05-23T09:19:55.554Z,24.73
2023-05-23T09:22:52.467Z,25.00
2023-05-23T09:25:23.322Z,23.63
2023-05-23T09:28:00.236Z,22.80
2023-05-23T09:30:31.786Z,24.37
2023-05-23T09:33:05.896Z,26.10
2023-05-23T09:35:37.726Z,22.60
2023-05-23T09:38:12.892Z,22.30
2023-05-23T09:40:49.344Z,22.20
2023-05-23T09:43:21.396Z,21.77
2023-05-23T09:45:57.706Z,22.10
2023-05-23T09:48:33.914Z,21.70
2023-05-23T09:51:08.744Z,23.10
2023-05-23T09:53:42.298Z,21.67
2023-05-23T09:56:15.588Z,20.87
2023-05-23T09:58:48.072Z,22.00
2023-05-23T10:01:19.830Z,19.77
2023-05-23T10:03:57.250Z,20.17
2023-05-23T10:06:34.822Z,19.33
2023-05-23T10:09:15.534Z,18.97
2023-05-23T10:12:22.208Z,19.27
2023-05-23T10:15:00.144Z,20.07
2023-05-23T10:17:39.495Z,19.87
2023-05-23T10:20:13.987Z,19.33
2023-05-23T10:22:45.993Z,19.57
2023-05-23T10:25:19.627Z,16.83
2023-05-23T10:27:54.273Z,19.00
2023-05-23T10:30:25.255Z,18.00
2023-05-23T10:32:57.086Z,16.97
2023-05-23T10:35:36.200Z,17.30
2023-05-23T10:38:15.937Z,19.07
2023-05-23T10:40:58.118Z,19.20
2023-05-23T10:43:34.041Z,19.70
2023-05-23T10:46:04.639Z,19.10
2023-05-23T10:48:43.786Z,19.13
2023-05-23T10:51:15.616Z,23.50
2023-05-23T10:53:47.939Z,18.30
2023-05-23T10:56:26.758Z,18.00
2023-05-23T10:59:00.310Z,15.87
2023-05-23T11:01:31.309Z,20.00
2023-05-23T11:04:08.159Z,17.87
2023-05-23T11:06:43.017Z,17.47
2023-05-23T11:09:16.888Z,18.00
2023-05-23T11:12:05.036Z,17.70
2023-05-23T11:14:38.568Z,17.33
2023-05-23T11:17:19.833Z,18.47
2023-05-23T11:20:13.484Z,14.93
2023-05-23T11:22:56.041Z,15.47
2023-05-23T11:25:44.763Z,15.93
2023-05-23T11:28:18.059Z,15.20
2023-05-23T11:30:51.261Z,15.90
2023-05-23T11:33:22.381Z,14.47
2023-05-23T11:35:54.167Z,14.67
2023-05-23T11:38:25.040Z,12.90
2023-05-23T11:40:55.624Z,14.23
2023-05-23T11:43:28.921Z,11.30
2023-05-23T11:45:59.484Z,13.50
2023-05-23T11:48:32.604Z,12.70
2023-05-23T11:51:03.232Z,12.60
2023-05-23T11:53:34.161Z,12.80
2023-05-23T11:56:06.316Z,13.27
2023-05-23T11:58:42.841Z,12.30
2023-05-23T12:01:14.773Z,10.30
2023-05-23T12:03:53.490Z,12.97
2023-05-23T12:06:25.182Z,10.03
2023-05-23T12:08:56.315Z,11.33
2023-05-23T12:11:26.979Z,13.07
2023-05-23T12:14:01.261Z,12.70
2023-05-23T12:16:32.933Z,13.93
2023-05-23T12:19:05.035Z,12.47
2023-05-23T12:21:45.935Z,13.00
2023-05-23T12:24:20.467Z,14.07
2023-05-23T12:26:52.654Z,14.10
2023-05-23T12:29:34.740Z,13.53
2023-05-23T12:32:07.318Z,12.53
2023-05-23T12:34:37.864Z,13.73
2023-05-23T12:39:42.738Z,12.57
2023-05-23T12:42:14.021Z,11.43
2023-05-23T12:44:48.859Z,11.13
2023-05-23T12:47:19.698Z,11.27
2023-05-23T12:49:50.305Z,11.83
2023-05-23T12:52:20.808Z,13.20
2023-05-23T12:54:51.538Z,12.83
2023-05-23T12:57:22.884Z,11.27
2023-05-23T12:59:55.986Z,10.43
2023-05-23T13:02:26.753Z,10.33
2023-05-23T13:04:57.399Z,11.40
2023-05-23T13:07:27.955Z,10.67
2023-05-23T13:09:58.577Z,11.30
2023-05-23T13:12:29.866Z,10.57
2023-05-23T13:15:03.167Z,11.70
2023-05-23T13:17:33.732Z,11.40
2023-05-23T13:20:05.378Z,9.47
2023-05-23T13:22:36.048Z,11.53
2023-05-23T13:25:07.545Z,10.00
2023-05-23T13:27:38.206Z,9.60
2023-05-23T13:30:12.790Z,9.10
2023-05-23T13:32:43.365Z,9.33
2023-05-23T13:35:14.061Z,10.37
2023-05-23T13:37:44.645Z,9.23
2023-05-23T13:40:20.679Z,9.50
2023-05-23T13:42:53.476Z,9.90
2023-05-23T13:45:26.817Z,9.30
2023-05-23T13:47:57.406Z,8.80
2023-05-23T13:50:28.371Z,8.27
2023-05-23T13:52:59.022Z,7.53
2023-05-23T13:55:29.719Z,9.43
2023-05-23T13:58:00.303Z,7.67
2023-05-23T14:00:33.489Z,9.60
2023-05-23T14:03:04.157Z,7.93
2023-05-23T14:05:34.786Z,7.43
2023-05-23T14:08:05.349Z,8.23
2023-05-23T14:10:36.166Z,8.40
2023-05-23T14:13:07.049Z,7.27
2023-05-23T14:15:42.690Z,8.13
2023-05-23T14:18:13.443Z,9.07
2023-05-23T14:20:43.994Z,8.17
2023-05-23T14:23:16.670Z,7.03
2023-05-23T14:25:47.173Z,7.67
2023-05-23T14:28:17.844Z,7.30
2023-05-23T14:30:51.219Z,7.97
2023-05-23T14:33:21.828Z,7.13
2023-05-23T14:35:53.096Z,7.13
2023-05-23T14:38:23.632Z,7.77
2023-05-23T14:40:54.801Z,6.50
2023-05-23T14:43:25.318Z,7.97
2023-05-23T14:45:58.589Z,7.10
2023-05-23T14:48:29.145Z,9.30
2023-05-23T14:51:01.801Z,7.83
2023-05-23T14:53:32.297Z,7.07
2023-05-23T14:56:03.593Z,7.13
2023-05-23T14:58:34.183Z,7.00
2023-05-23T15:01:07.635Z,7.50
2023-05-23T15:03:38.532Z,7.20
2023-05-23T15:06:09.572Z,6.40
2023-05-23T15:08:40.431Z,6.77
2023-05-23T15:11:11.205Z,6.87
2023-05-23T15:13:41.742Z,6.40
2023-05-23T15:16:18.216Z,6.00
2023-05-23T15:18:51.466Z,6.70
2023-05-23T15:21:22.105Z,5.70
2023-05-23T15:23:52.662Z,5.90
2023-05-23T15:26:28.389Z,5.40
2023-05-23T15:28:59.299Z,5.90
2023-05-23T15:31:33.492Z,5.57
2023-05-23T15:34:04.616Z,5.30
2023-05-23T15:36:35.241Z,5.80
2023-05-23T15:39:06.355Z,5.70
2023-05-23T15:41:36.931Z,5.87
2023-05-23T15:44:07.803Z,5.97
2023-05-23T15:46:40.943Z,5.40
2023-05-23T15:49:24.508Z,5.60
2023-05-23T15:51:56.860Z,5.83
2023-05-23T15:54:27.393Z,5.83
2023-05-23T15:56:57.972Z,6.63
2023-05-23T15:59:28.577Z,5.83
2023-05-23T16:02:05.463Z,6.87
2023-05-23T16:04:36.231Z,4.90
2023-05-23T16:07:07.093Z,5.60
2023-05-23T16:09:37.623Z,5.87
2023-05-23T16:12:08.920Z,5.90
2023-05-23T16:14:39.502Z,5.77
2023-05-23T16:17:12.713Z,6.13
2023-05-23T16:19:43.432Z,6.47
2023-05-23T16:22:15.883Z,7.17
2023-05-23T16:24:46.514Z,5.77
2023-05-23T16:27:17.204Z,7.03
2023-05-23T16:29:54.271Z,6.57
2023-05-23T16:32:27.427Z,7.20
2023-05-23T16:34:58.285Z,5.47
2023-05-23T16:37:28.824Z,7.07
2023-05-23T16:39:59.366Z,7.43
2023-05-23T16:42:30.066Z,7.07
2023-05-23T16:45:00.714Z,7.10
2023-05-23T16:47:33.920Z,6.83
2023-05-23T16:50:05.129Z,7.00
2023-05-23T16:52:35.710Z,7.50
2023-05-23T16:55:07.188Z,7.50
2023-05-23T16:57:37.705Z,8.50
2023-05-23T17:00:09.334Z,9.27
2023-05-23T17:02:42.669Z,8.17
2023-05-23T17:05:13.357Z,9.20
2023-05-23T17:07:43.938Z,9.63
2023-05-23T17:10:14.972Z,9.70
2023-05-23T17:12:45.481Z,12.50
2023-05-23T17:15:15.999Z,10.27
2023-05-23T17:17:49.775Z,10.47
2023-05-23T17:20:24.144Z,10.43
2023-05-23T17:22:54.945Z,10.87
2023-05-23T17:25:25.678Z,10.57
2023-05-23T17:27:56.928Z,10.50
2023-05-23T17:30:28.486Z,10.47
2023-05-23T17:33:01.657Z,11.30
2023-05-23T17:35:32.577Z,8.70
2023-05-23T17:38:03.146Z,10.43
2023-05-23T17:40:33.850Z,11.60
2023-05-23T17:43:04.393Z,9.93
2023-05-23T17:45:34.961Z,11.00
2023-05-23T17:48:08.214Z,9.37
2023-05-23T17:50:38.752Z,9.33
2023-05-23T17:53:09.656Z,9.00
2023-05-23T17:55:40.207Z,8.60
2023-05-23T17:58:10.851Z,8.33
2023-05-23T18:00:41.683Z,7.70
2023-05-23T18:03:14.920Z,7.20
2023-05-23T18:05:45.671Z,8.83
2023-05-23T18:08:16.594Z,7.23
2023-05-23T18:10:47.913Z,7.40
2023-05-23T18:13:19.183Z,8.10
2023-05-23T18:15:49.808Z,6.40
2023-05-23T18:18:23.024Z,7.00
2023-05-23T18:20:53.698Z,5.83
2023-05-23T18:23:25.005Z,5.73
2023-05-23T18:25:55.503Z,6.20
2023-05-23T18:28:26.120Z,5.93
2023-05-23T18:30:56.683Z,5.93
2023-05-23T18:33:30.344Z,5.80
2023-05-23T18:36:01.421Z,5.60
2023-05-23T18:38:32.029Z,6.50
2023-05-23T18:41:02.661Z,4.60
2023-05-23T18:43:33.218Z,4.70
2023-05-23T18:46:03.859Z,4.70
2023-05-23T18:48:37.076Z,5.07
2023-05-23T18:51:08.628Z,4.60
2023-05-23T18:53:40.813Z,4.30
2023-05-23T18:56:12.879Z,4.33
2023-05-23T18:58:45.333Z,5.07
2023-05-23T19:01:17.272Z,4.20
2023-05-23T19:03:50.475Z,3.80
2023-05-23T19:06:21.264Z,3.60
2023-05-23T19:08:51.822Z,3.80
2023-05-23T19:11:22.750Z,3.70
2023-05-23T19:13:53.309Z,4.40
2023-05-23T19:16:24.214Z,3.67
2023-05-23T19:18:57.539Z,3.50
2023-05-23T19:21:28.492Z,3.60
2023-05-23T19:23:59.323Z,2.93
2023-05-23T19:26:30.123Z,3.47
2023-05-23T19:29:00.798Z,3.30
2023-05-23T19:31:31.860Z,3.30
2023-05-23T19:34:05.087Z,3.60
2023-05-23T19:36:36.689Z,3.37
2023-05-23T19:39:07.485Z,3.63
2023-05-23T19:41:38.160Z,3.90
2023-05-23T19:44:08.711Z,3.43
2023-05-23T19:46:39.280Z,3.93
2023-05-23T19:49:13.810Z,3.50
2023-05-23T19:51:44.392Z,3.40
2023-05-23T19:54:15.802Z,3.97
2023-05-23T19:56:46.378Z,4.10
2023-05-23T19:59:17.230Z,4.13
2023-05-23T20:01:47.834Z,3.67
2023-05-23T20:04:24.193Z,4.30
2023-05-23T20:06:56.161Z,3.40
2023-05-23T20:09:26.715Z,4.77
2023-05-23T20:11:57.282Z,4.30
2023-05-23T20:14:29.353Z,4.23
2023-05-23T20:17:00.075Z,3.90
2023-05-23T20:19:33.373Z,4.60
2023-05-23T20:22:04.199Z,4.23
2023-05-23T20:24:34.771Z,3.73
2023-05-23T20:27:05.314Z,4.17
2023-05-23T20:29:36.056Z,4.83
2023-05-23T20:32:06.946Z,5.37
2023-05-23T20:34:40.154Z,5.00
2023-05-23T20:37:13.856Z,5.03
2023-05-23T20:39:44.701Z,4.53
2023-05-23T20:42:15.356Z,4.60
2023-05-23T20:44:47.080Z,5.07
2023-05-23T20:47:18.457Z,4.80
2023-05-23T20:49:51.853Z,4.87
2023-05-23T20:52:23.081Z,4.73
2023-05-23T20:54:54.661Z,5.10
2023-05-23T20:57:25.294Z,4.93
2023-05-23T20:59:55.855Z,4.80
2023-05-23T21:02:26.943Z,4.97
2023-05-23T21:05:00.325Z,4.83
2023-05-23T21:07:30.921Z,4.50
2023-05-23T21:10:01.493Z,5.00
2023-05-23T21:12:32.144Z,4.97
2023-05-23T21:15:03.295Z,4.63
2023-05-23T21:17:33.953Z,5.10
2023-05-23T21:20:07.705Z,4.70
2023-05-23T21:22:38.289Z,5.90
2023-05-23T21:25:09.524Z,4.90
2023-05-23T21:27:40.225Z,5.77
2023-05-23T21:30:12.192Z,5.40
2023-05-23T21:32:43.669Z,6.07
2023-05-23T21:35:17.009Z,5.10
2023-05-23T21:37:47.546Z,4.90
2023-05-23T21:40:18.201Z,6.20
2023-05-23T21:42:48.770Z,4.83
2023-05-23T21:45:19.374Z,5.00
2023-05-23T21:47:49.996Z,5.60
2023-05-23T21:50:23.454Z,5.00
2023-05-23T21:52:54.322Z,5.67
2023-05-23T21:55:24.956Z,6.10
2023-05-23T21:57:55.780Z,6.00
2023-05-23T22:00:27.542Z,5.63
2023-05-23T22:02:58.212Z,5.80
2023-05-23T22:05:31.829Z,4.73
2023-05-23T22:08:02.352Z,5.20
2023-05-23T22:10:35.014Z,4.53
2023-05-23T22:13:06.098Z,5.43
2023-05-23T22:15:37.024Z,5.00
2023-05-23T22:18:08.035Z,4.97
2023-05-23T22:20:41.381Z,5.13
2023-05-23T22:23:16.975Z,5.40
2023-05-23T22:25:48.273Z,5.70
2023-05-23T22:28:18.921Z,5.50
2023-05-23T22:30:49.612Z,4.70
2023-05-23T22:33:20.398Z,4.77
2023-05-23T22:35:53.725Z,5.03
2023-05-23T22:38:24.376Z,6.13
2023-05-23T22:40:54.965Z,4.73
2023-05-23T22:43:25.784Z,5.47
2023-05-23T22:45:56.363Z,4.93
2023-05-23T22:48:28.431Z,5.10
2023-05-23T22:51:02.992Z,5.20
2023-05-23T22:53:33.890Z,6.93
2023-05-23T22:56:04.568Z,4.40
2023-05-23T22:58:35.148Z,5.10
2023-05-23T23:01:05.852Z,6.20
2023-05-23T23:03:36.568Z,5.67
2023-05-23T23:06:10.191Z,5.90
2023-05-23T23:08:40.967Z,5.87
2023-05-23T23:11:11.562Z,5.80
2023-05-23T23:13:42.193Z,5.07
2023-05-23T23:16:13.369Z,5.10
2023-05-23T23:18:44.098Z,5.27
2023-05-23T23:21:17.400Z,6.37
2023-05-23T23:23:48.083Z,6.00
2023-05-23T23:26:18.745Z,5.07
2023-05-23T23:28:49.441Z,5.50
2023-05-23T23:31:20.133Z,6.10
2023-05-23T23:33:50.818Z,5.87
2023-05-23T23:36:24.358Z,6.00
2023-05-23T23:38:54.952Z,5.60
2023-05-23T23:41:27.040Z,6.07
2023-05-23T23:43:57.609Z,6.10
2023-05-23T23:46:28.273Z,5.70
2023-05-23T23:48:58.869Z,5.53
2023-05-23T23:51:32.821Z,5.87
2023-05-23T23:54:03.640Z,5.63
2023-05-23T23:56:34.198Z,5.43
2023-05-23T23:59:04.894Z,5.33
